»·PEaware :: N482DT KSEA-KYKM

N482DT :: KSEA-KYKM

FLIGHT INFORMATION

Flight Status: Arrived
Operator: Privately registered:
United States
More flights under this callsign
Pilot: Wade J. (23035)
Aircraft: CESSNA 172 SKYHAWK
(C172)
More flights by this aircraft type
Origin: KSEA Seattle-Tacoma Intl
United States
Destination: KYKM Yakima Air Term/Mcallister
United States
More flights between these airports :: More routes between these airports
Route: +SEA7 V4 KYKM
File this flight plan on PilotEdge
Remarks:
Altitude:
(Current/Filed)
9,000ft
Speed:
(Current/Filed)
115kts
Departed: 10-Feb-19 11:26 AM
Arrived: 10-Feb-19 12:31 PM
Distance/Time
Traveled:
90nm/1:05
Distance/Time
To Go:
Arrived

Flight Plot

Page will automatically refresh every two minutes.

Flight plan parsing failed; only flown route is shown


Map Options




Map Legend


Flown Route
Filed Route
Departure Airport
Arrival Airport
Navaid (VOR, NDB)
Fix

Horizontal Profiles

Position Reports

Time Latitude Longitude Heading Altitude Ground
Speed
10-Feb-19 11:09 47.439185 -122.315195 55 351ft 0kts
10-Feb-19 11:10 47.439185 -122.315195 55 351ft 0kts
10-Feb-19 11:11 47.439185 -122.315195 55 351ft 0kts
10-Feb-19 11:12 47.439185 -122.315195 55 351ft 0kts
10-Feb-19 11:13 47.439185 -122.315195 55 351ft 0kts
10-Feb-19 11:14 47.439185 -122.315195 55 351ft 0kts
10-Feb-19 11:15 47.439185 -122.315195 55 351ft 0kts
10-Feb-19 11:16 47.439185 -122.315195 55 351ft 0kts
10-Feb-19 11:17 47.439185 -122.315195 55 351ft 0kts
10-Feb-19 11:18 47.440505 -122.313607 1 359ft 17kts
10-Feb-19 11:19 47.447267 -122.313558 1 387ft 27kts
10-Feb-19 11:20 47.455645 -122.313465 2 398ft 33kts
10-Feb-19 11:21 47.463449 -122.313482 94 372ft 13kts
10-Feb-19 11:22 47.463390 -122.313338 136 374ft 0kts
10-Feb-19 11:23 47.463670 -122.312485 94 376ft 0kts
10-Feb-19 11:24 47.463667 -122.312420 92 377ft 0kts
10-Feb-19 11:25 47.458537 -122.310931 175 438ft 72kts
10-Feb-19 11:26 47.436650 -122.310069 176 1165ft 91kts
10-Feb-19 11:27 47.409677 -122.309214 176 1879ft 96kts
10-Feb-19 11:28 47.383728 -122.308432 176 2675ft 91kts
10-Feb-19 11:29 47.361804 -122.300777 114 3468ft 81kts
10-Feb-19 11:30 47.354892 -122.271413 108 4255ft 69kts
10-Feb-19 11:31 47.349716 -122.247969 109 4910ft 56kts
10-Feb-19 11:32 47.344326 -122.221802 110 5367ft 77kts
10-Feb-19 11:33 47.336825 -122.190959 108 5849ft 91kts
10-Feb-19 11:34 47.326940 -122.151450 108 6141ft 105kts
10-Feb-19 11:35 47.318038 -122.116669 108 6887ft 76kts
10-Feb-19 11:36 47.312227 -122.091356 107 7353ft 73kts
10-Feb-19 11:37 47.304088 -122.061057 106 7790ft 81kts
10-Feb-19 11:38 47.295689 -122.028251 108 8225ft 82kts
10-Feb-19 11:39 47.284824 -121.996689 121 8577ft 93kts
10-Feb-19 11:40 47.269284 -121.964366 122 8827ft 108kts
10-Feb-19 11:41 47.250785 -121.926126 122 8819ft 112kts
10-Feb-19 11:42 47.232731 -121.888676 122 8823ft 116kts
10-Feb-19 11:43 47.213613 -121.849122 122 8821ft 119kts
10-Feb-19 11:44 47.194330 -121.809277 122 8820ft 118kts
10-Feb-19 11:45 47.175615 -121.770643 122 8821ft 117kts
10-Feb-19 11:46 47.156595 -121.731799 123 8821ft 117kts
10-Feb-19 11:47 47.137236 -121.692945 123 8821ft 117kts
10-Feb-19 11:48 47.118063 -121.653839 122 8821ft 118kts
10-Feb-19 11:49 47.098964 -121.614702 122 8821ft 118kts
10-Feb-19 11:50 47.079803 -121.575433 122 8821ft 118kts
10-Feb-19 11:51 47.060528 -121.535974 122 8821ft 119kts
10-Feb-19 11:52 47.041186 -121.496428 122 8821ft 119kts
10-Feb-19 11:53 47.021775 -121.456805 122 8821ft 119kts
10-Feb-19 11:54 47.002438 -121.417385 122 8827ft 119kts
10-Feb-19 11:55 46.983083 -121.377982 122 8840ft 118kts
10-Feb-19 11:57 46.963823 -121.338825 123 8854ft 118kts
10-Feb-19 11:58 46.944501 -121.299603 123 8868ft 118kts
10-Feb-19 11:59 46.925223 -121.260526 123 8881ft 118kts
10-Feb-19 12:00 46.906027 -121.221666 122 8895ft 118kts
10-Feb-19 12:01 46.886765 -121.182724 122 8903ft 118kts
10-Feb-19 12:02 46.867590 -121.144008 122 8906ft 117kts
10-Feb-19 12:03 46.848547 -121.105029 122 8911ft 117kts
10-Feb-19 12:04 46.829606 -121.066084 123 8916ft 117kts
10-Feb-19 12:05 46.810351 -121.027340 123 8922ft 117kts
10-Feb-19 12:06 46.798077 -120.985439 85 8926ft 114kts
10-Feb-19 12:07 46.800531 -120.939053 83 8926ft 115kts
10-Feb-19 12:08 46.803232 -120.892388 83 8925ft 115kts
10-Feb-19 12:09 46.805912 -120.845897 83 8924ft 115kts
10-Feb-19 12:10 46.808580 -120.799291 83 8923ft 115kts
10-Feb-19 12:11 46.811227 -120.752728 83 8922ft 115kts
10-Feb-19 12:11 46.813420 -120.713893 83 8922ft 115kts
10-Feb-19 12:13 46.816470 -120.659467 83 8921ft 115kts
10-Feb-19 12:14 46.801089 -120.618267 127 8787ft 128kts
10-Feb-19 12:15 46.776721 -120.576932 128 8097ft 133kts
10-Feb-19 12:15 46.756675 -120.543344 128 7508ft 129kts
10-Feb-19 12:16 46.733443 -120.504446 129 6806ft 127kts
10-Feb-19 12:18 46.706296 -120.459068 129 5984ft 127kts
10-Feb-19 12:19 46.683101 -120.420357 129 5283ft 127kts
10-Feb-19 12:19 46.665910 -120.391681 129 5244ft 101kts
10-Feb-19 12:20 46.644737 -120.356323 129 5248ft 125kts
10-Feb-19 12:21 46.620546 -120.318326 141 5133ft 135kts
10-Feb-19 12:22 46.585531 -120.301056 180 4618ft 130kts
10-Feb-19 12:23 46.552380 -120.316386 215 4099ft 127kts
10-Feb-19 12:24 46.531751 -120.360269 257 3061ft 142kts
10-Feb-19 12:25 46.536175 -120.413841 291 2329ft 122kts
10-Feb-19 12:26 46.545526 -120.451379 290 1673ft 86kts
10-Feb-19 12:27 46.552628 -120.479832 289 1472ft 58kts
10-Feb-19 12:28 46.559038 -120.506034 288 1507ft 87kts
10-Feb-19 12:29 46.566149 -120.533991 287 1052ft 41kts
10-Feb-19 12:30 46.568277 -120.539687 57 1063ft 9kts
10-Feb-19 12:31 46.569540 -120.539521 6 1063ft 0kts

Navigation Log

Ident Type
Flight plan parsing failed, navigation log unavailable